Time;durP1;ratioP1;P1;durP2;ratioP2;P2;SDS_P1;SDS_P2;PMS_P1;PMS_P2;Temp;Humidity;BMP_temperature;BMP_pressure;BME280_temperature;BME280_humidity;BME280_pressure;Samples;Min_cycle;Max_cycle;Signal;HPM_P1;HPM_P2
2021/05/29 00:01:30;;;;;;;18.40;13.25;;;17.80;64.90;;;;;;6151489;23;20108;-63
2021/05/29 00:03:56;;;;;;;18.15;13.98;;;17.90;64.80;;;;;;6150990;23;20478;-63
2021/05/29 00:06:21;;;;;;;22.52;14.43;;;17.90;64.70;;;;;;6151263;23;20014;-63
2021/05/29 00:08:47;;;;;;;19.20;14.05;;;17.90;64.70;;;;;;6151529;23;20017;-63
2021/05/29 00:11:13;;;;;;;16.92;12.10;;;18.00;64.60;;;;;;6151510;23;20018;-62
2021/05/29 00:13:40;;;;;;;18.25;13.50;;;18.00;64.10;;;;;;6153354;23;20014;-64
2021/05/29 00:16:09;;;;;;;18.02;12.20;;;18.00;64.10;;;;;;6153190;23;20015;-63
2021/05/29 00:18:36;;;;;;;18.15;12.45;;;18.10;64.20;;;;;;6153030;23;20404;-63
2021/05/29 00:21:02;;;;;;;16.90;11.75;;;18.10;63.90;;;;;;6125791;23;20474;-62
2021/05/29 00:23:28;;;;;;;16.08;11.65;;;18.10;63.80;;;;;;6151358;23;20018;-63
2021/05/29 00:25:53;;;;;;;17.15;12.77;;;18.10;63.50;;;;;;6153015;23;20009;-62
2021/05/29 00:28:20;;;;;;;20.15;12.95;;;18.10;63.70;;;;;;6149804;23;20017;-63
2021/05/29 00:30:46;;;;;;;16.73;12.35;;;18.10;63.80;;;;;;6149612;23;20021;-63
2021/05/29 00:33:12;;;;;;;16.80;12.20;;;18.00;63.80;;;;;;6151008;23;20013;-63
2021/05/29 00:35:39;;;;;;;13.82;9.07;;;18.00;64.20;;;;;;6152665;23;20072;-63
2021/05/29 00:38:05;;;;;;;18.27;12.00;;;18.00;63.20;;;;;;6151661;23;20037;-63
2021/05/29 00:40:31;;;;;;;18.15;11.38;;;18.00;63.80;;;;;;6125157;23;20020;-62
2021/05/29 00:42:57;;;;;;;18.13;12.05;;;18.00;63.60;;;;;;6152022;23;20111;-62
2021/05/29 00:45:23;;;;;;;16.27;11.95;;;18.00;64.10;;;;;;6152063;23;20435;-62
2021/05/29 00:47:49;;;;;;;15.98;12.02;;;18.00;64.00;;;;;;6153295;23;20021;-62
2021/05/29 00:50:15;;;;;;;15.50;11.55;;;18.00;63.90;;;;;;6151729;23;20009;-63
2021/05/29 00:52:42;;;;;;;18.30;12.63;;;18.10;63.70;;;;;;6151063;23;20020;-63
2021/05/29 00:55:10;;;;;;;17.50;11.63;;;18.10;63.60;;;;;;6152738;23;20422;-63
2021/05/29 00:57:40;;;;;;;16.17;11.52;;;18.10;64.20;;;;;;6150434;23;20097;-63
2021/05/29 01:00:08;;;;;;;16.33;10.02;;;18.10;63.50;;;;;;6152173;23;20017;-63
2021/05/29 01:02:34;;;;;;;17.55;11.68;;;18.10;62.70;;;;;;6151179;23;20075;-63
2021/05/29 01:05:00;;;;;;;15.43;11.35;;;18.10;62.90;;;;;;6126242;23;20017;-63
2021/05/29 01:07:26;;;;;;;15.50;11.07;;;18.10;63.10;;;;;;6150458;23;20021;-63
2021/05/29 01:09:52;;;;;;;15.82;11.77;;;18.10;63.00;;;;;;6149594;23;20021;-63
2021/05/29 01:12:18;;;;;;;17.25;12.23;;;18.10;63.10;;;;;;6151520;23;20313;-63
2021/05/29 01:14:56;;;;;;;17.55;12.25;;;18.10;63.10;;;;;;6153385;23;20032;-63
2021/05/29 01:17:23;;;;;;;11.15;7.60;;;18.20;63.10;;;;;;6150303;23;20017;-63
2021/05/29 01:19:50;;;;;;;15.38;11.35;;;18.20;61.80;;;;;;6151835;23;20097;-63
2021/05/29 01:22:37;;;;;;;18.48;12.13;;;18.00;62.40;;;;;;6100406;23;20032;-63
2021/05/29 01:25:19;;;;;;;14.60;9.02;;;17.90;63.00;;;;;;6150376;23;20021;-64
2021/05/29 01:27:53;;;;;;;14.85;10.38;;;18.00;62.00;;;;;;6151731;23;20092;-63
2021/05/29 01:30:20;;;;;;;19.90;12.10;;;17.90;62.50;;;;;;6150898;23;20017;-63
2021/05/29 01:32:45;;;;;;;16.02;11.95;;;17.80;62.80;;;;;;6150528;23;20017;-63
2021/05/29 01:35:12;;;;;;;13.15;9.40;;;17.70;63.60;;;;;;6125689;23;20028;-63
2021/05/29 01:37:39;;;;;;;6.88;5.72;;;17.60;62.70;;;;;;6151060;23;20068;-63
2021/05/29 01:40:07;;;;;;;15.40;11.32;;;17.30;61.60;;;;;;6151448;23;20525;-63
2021/05/29 01:42:35;;;;;;;15.52;11.50;;;17.20;62.90;;;;;;6151699;23;20029;-63
2021/05/29 01:45:03;;;;;;;15.15;11.35;;;17.20;64.60;;;;;;6150551;23;20017;-63
2021/05/29 01:47:29;;;;;;;16.45;11.90;;;17.30;64.90;;;;;;6151049;23;20025;-63
2021/05/29 01:49:55;;;;;;;17.80;11.27;;;17.50;64.70;;;;;;6150387;23;20024;-63
2021/05/29 01:52:41;;;;;;;15.02;10.88;;;17.60;64.30;;;;;;6150335;23;20017;-63
2021/05/29 01:55:07;;;;;;;15.40;11.35;;;17.80;64.00;;;;;;6149796;23;20076;-63
2021/05/29 01:57:33;;;;;;;16.20;11.32;;;17.90;63.60;;;;;;6151678;23;20052;-63
2021/05/29 01:59:58;;;;;;;17.10;12.30;;;17.90;63.20;;;;;;6150717;23;20017;-63
2021/05/29 02:02:24;;;;;;;14.77;10.98;;;18.00;63.00;;;;;;6151472;23;20025;-63
2021/05/29 02:04:50;;;;;;;14.73;10.77;;;18.10;62.80;;;;;;6152099;23;20444;-63
2021/05/29 02:07:16;;;;;;;15.75;10.40;;;18.10;62.80;;;;;;6152833;23;20040;-63
2021/05/29 02:09:42;;;;;;;13.40;9.43;;;18.10;62.60;;;;;;6152239;23;20024;-63
2021/05/29 02:12:08;;;;;;;15.02;10.60;;;18.20;62.40;;;;;;6153189;23;20014;-63
2021/05/29 02:14:34;;;;;;;14.43;9.90;;;18.20;62.40;;;;;;6151931;23;20021;-63
2021/05/29 02:17:00;;;;;;;13.20;9.30;;;18.20;62.30;;;;;;6152703;23;20436;-63
2021/05/29 02:19:26;;;;;;;11.68;8.38;;;18.20;62.20;;;;;;6128421;23;20384;-63
2021/05/29 02:21:52;;;;;;;14.23;9.75;;;18.20;62.30;;;;;;6153199;23;20017;-63
2021/05/29 02:24:17;;;;;;;13.75;9.23;;;18.20;62.20;;;;;;6154191;23;20017;-63
2021/05/29 02:26:44;;;;;;;12.77;8.98;;;18.30;62.30;;;;;;6152311;23;20017;-63
2021/05/29 02:29:09;;;;;;;14.25;9.02;;;18.30;62.30;;;;;;6152292;23;20426;-63
2021/05/29 02:31:37;;;;;;;11.48;8.73;;;18.20;62.30;;;;;;6151940;23;20045;-63
2021/05/29 02:34:03;;;;;;;12.18;8.70;;;18.30;62.30;;;;;;6151822;23;20335;-63
2021/05/29 02:36:31;;;;;;;20.67;10.20;;;18.30;62.30;;;;;;6126879;23;20013;-63
2021/05/29 02:38:56;;;;;;;11.77;8.27;;;18.30;62.10;;;;;;6154582;23;20028;-63
2021/05/29 02:41:22;;;;;;;11.93;8.80;;;18.30;61.90;;;;;;6152320;23;20105;-64
2021/05/29 02:43:48;;;;;;;10.82;9.05;;;18.30;61.50;;;;;;6152778;23;20033;-63
2021/05/29 02:46:14;;;;;;;13.95;9.13;;;18.30;61.60;;;;;;6152442;23;20013;-63
2021/05/29 02:48:41;;;;;;;13.68;9.07;;;18.30;61.60;;;;;;6151976;23;20021;-63
2021/05/29 02:51:06;;;;;;;9.82;7.55;;;18.30;61.60;;;;;;6154724;23;20014;-63
2021/05/29 02:53:32;;;;;;;13.13;8.95;;;18.30;61.50;;;;;;6154383;23;20745;-63
2021/05/29 02:55:58;;;;;;;11.98;8.38;;;18.30;61.40;;;;;;6125842;23;20017;-63
2021/05/29 02:58:24;;;;;;;10.02;7.30;;;18.30;61.20;;;;;;6151973;23;20014;-63
2021/05/29 03:00:50;;;;;;;11.52;7.20;;;18.30;61.20;;;;;;6151461;23;20092;-63
2021/05/29 03:03:16;;;;;;;10.68;8.20;;;18.30;61.20;;;;;;6152946;23;20020;-63
2021/05/29 03:05:44;;;;;;;10.82;7.90;;;18.30;61.20;;;;;;6153321;23;20068;-63
2021/05/29 03:08:11;;;;;;;10.75;7.72;;;18.30;61.30;;;;;;6152011;23;20017;-62
2021/05/29 03:10:36;;;;;;;9.73;7.03;;;18.30;61.30;;;;;;6153712;23;20022;-62
2021/05/29 03:13:05;;;;;;;10.30;7.00;;;18.30;61.30;;;;;;6151620;23;20095;-62
2021/05/29 03:15:31;;;;;;;11.73;8.43;;;18.30;61.30;;;;;;6151295;23;20013;-62
2021/05/29 03:17:58;;;;;;;10.38;7.35;;;18.30;61.30;;;;;;6153005;23;20068;-62
2021/05/29 03:20:27;;;;;;;10.05;6.70;;;18.30;61.10;;;;;;6152844;23;20020;-63
2021/05/29 03:22:53;;;;;;;8.88;6.50;;;18.30;61.10;;;;;;6151886;23;20024;-63
2021/05/29 03:25:19;;;;;;;9.43;7.30;;;18.30;61.00;;;;;;6151361;23;20018;-63
2021/05/29 03:27:47;;;;;;;10.45;7.05;;;18.30;61.50;;;;;;6151664;23;20068;-63
2021/05/29 03:30:15;;;;;;;7.93;6.22;;;18.30;61.00;;;;;;6152128;23;20049;-62
2021/05/29 03:32:41;;;;;;;10.13;7.18;;;18.20;61.00;;;;;;6151135;23;20029;-62
2021/05/29 03:35:09;;;;;;;9.60;6.30;;;18.20;61.00;;;;;;6151193;23;20451;-62
2021/05/29 03:37:36;;;;;;;9.82;6.70;;;18.20;60.90;;;;;;6152930;23;20375;-62
2021/05/29 03:40:03;;;;;;;8.00;4.97;;;18.00;60.80;;;;;;6151625;23;20101;-62
2021/05/29 03:42:29;;;;;;;8.38;5.05;;;17.80;59.60;;;;;;6151367;23;20037;-62
2021/05/29 03:44:55;;;;;;;5.25;3.83;;;17.50;59.60;;;;;;6152485;23;20335;-62
2021/05/29 03:47:21;;;;;;;6.53;3.60;;;17.30;59.40;;;;;;6151644;23;20013;-63
2021/05/29 03:49:47;;;;;;;8.60;5.68;;;17.10;58.80;;;;;;6151504;23;20017;-63
2021/05/29 03:52:12;;;;;;;8.63;6.20;;;16.90;60.90;;;;;;6153508;23;20018;-63
2021/05/29 03:54:38;;;;;;;7.78;5.95;;;16.90;63.20;;;;;;6153991;23;20097;-62
2021/05/29 03:57:04;;;;;;;6.95;4.95;;;17.00;63.90;;;;;;6153687;23;20017;-61
2021/05/29 03:59:30;;;;;;;5.90;4.45;;;17.20;63.10;;;;;;6152624;23;20475;-61
2021/05/29 04:01:56;;;;;;;3.63;3.10;;;17.10;61.10;;;;;;6126437;23;20175;-62
2021/05/29 04:04:22;;;;;;;8.95;6.47;;;17.00;59.80;;;;;;6152810;23;20071;-61
2021/05/29 04:06:47;;;;;;;8.32;4.07;;;16.70;61.80;;;;;;6151158;23;20018;-62
2021/05/29 04:09:13;;;;;;;6.05;4.78;;;16.80;62.70;;;;;;6152277;23;20013;-61
2021/05/29 04:11:39;;;;;;;6.13;3.95;;;16.70;61.20;;;;;;6152938;23;20021;-62
2021/05/29 04:14:09;;;;;;;6.75;4.40;;;16.50;61.80;;;;;;6151128;23;20679;-56
2021/05/29 04:16:35;;;;;;;7.45;4.22;;;16.40;62.40;;;;;;6152159;23;20444;-57
2021/05/29 04:19:01;;;;;;;8.48;5.45;;;16.30;62.60;;;;;;6152333;23;20080;-57
2021/05/29 04:21:27;;;;;;;5.15;3.78;;;16.10;63.10;;;;;;6152680;23;20025;-57
2021/05/29 04:23:53;;;;;;;5.10;3.28;;;16.10;63.20;;;;;;6151263;23;20021;-57
2021/05/29 04:26:19;;;;;;;7.47;5.55;;;15.90;62.30;;;;;;6151260;23;20083;-57
2021/05/29 04:28:45;;;;;;;6.82;3.60;;;15.90;64.50;;;;;;6124639;23;20021;-57
2021/05/29 04:31:11;;;;;;;5.50;3.92;;;15.90;62.80;;;;;;6150661;23;20327;-57
2021/05/29 04:33:37;;;;;;;5.75;4.28;;;15.80;62.00;;;;;;6151816;23;20032;-57
2021/05/29 04:36:03;;;;;;;6.30;3.50;;;15.60;63.10;;;;;;6152472;23;20598;-57
2021/05/29 04:38:29;;;;;;;5.00;3.60;;;15.50;62.60;;;;;;6124527;23;20044;-56
2021/05/29 04:40:55;;;;;;;4.45;3.03;;;15.50;62.90;;;;;;6150489;23;20017;-56
2021/05/29 04:43:21;;;;;;;4.03;3.40;;;15.40;61.60;;;;;;6151415;23;20013;-57
2021/05/29 04:45:48;;;;;;;7.63;5.53;;;15.40;63.10;;;;;;6150594;23;20018;-57
2021/05/29 04:48:14;;;;;;;4.88;3.22;;;15.40;64.70;;;;;;6151735;23;20093;-57
2021/05/29 04:53:25;;;;;;;7.80;4.63;;;15.60;66.00;;;;;;6151714;23;20455;-57
2021/05/29 04:55:53;;;;;;;7.85;5.00;;;15.80;66.00;;;;;;6125473;23;20013;-57
2021/05/29 04:58:20;;;;;;;5.78;4.78;;;16.00;66.20;;;;;;6151596;23;20010;-57
2021/05/29 05:00:46;;;;;;;8.57;5.43;;;16.30;65.30;;;;;;6153499;23;20164;-57
2021/05/29 05:03:12;;;;;;;9.45;5.47;;;16.40;65.00;;;;;;6153171;23;20017;-57
2021/05/29 05:05:38;;;;;;;6.07;4.15;;;16.30;63.50;;;;;;6124988;23;20032;-57
2021/05/29 05:08:04;;;;;;;6.93;4.53;;;16.10;62.60;;;;;;6150624;23;20036;-57
2021/05/29 05:10:30;;;;;;;6.60;4.93;;;16.00;63.10;;;;;;6151888;23;20096;-57
2021/05/29 05:12:56;;;;;;;8.85;5.68;;;16.00;63.70;;;;;;6151954;23;20403;-57
2021/05/29 05:15:22;;;;;;;7.90;4.90;;;16.00;64.60;;;;;;6150513;23;20293;-57
2021/05/29 05:17:47;;;;;;;6.10;5.45;;;16.10;63.30;;;;;;6152536;23;20024;-57
2021/05/29 05:20:14;;;;;;;7.63;4.63;;;16.20;63.90;;;;;;6152432;23;20021;-57
2021/05/29 05:22:40;;;;;;;6.43;5.72;;;16.30;63.70;;;;;;6124434;23;20120;-58
2021/05/29 05:25:07;;;;;;;6.07;5.00;;;16.50;64.90;;;;;;6151306;23;20084;-58
2021/05/29 05:27:33;;;;;;;8.68;5.38;;;16.70;64.60;;;;;;6150379;23;20018;-58
2021/05/29 05:30:00;;;;;;;7.95;4.60;;;16.90;64.20;;;;;;6152139;23;20014;-58
2021/05/29 05:32:26;;;;;;;8.00;5.30;;;17.10;63.90;;;;;;6151792;23;20024;-58
2021/05/29 05:34:53;;;;;;;8.02;5.07;;;17.20;64.10;;;;;;6152612;23;20119;-58
2021/05/29 05:37:20;;;;;;;6.80;5.15;;;17.30;63.70;;;;;;6150237;23;20025;-58
2021/05/29 05:39:46;;;;;;;6.82;5.40;;;17.50;63.40;;;;;;6150661;23;20385;-58
2021/05/29 05:42:12;;;;;;;7.93;5.15;;;17.60;63.10;;;;;;6153015;23;20051;-58
2021/05/29 05:44:37;;;;;;;7.05;4.60;;;17.50;62.20;;;;;;6150527;23;20021;-58
2021/05/29 05:47:03;;;;;;;7.13;5.30;;;17.30;62.40;;;;;;6150925;23;20017;-58
2021/05/29 05:49:29;;;;;;;5.07;3.17;;;17.10;62.90;;;;;;6151700;23;20013;-58
2021/05/29 05:51:55;;;;;;;3.83;2.80;;;17.00;61.10;;;;;;6150025;23;20024;-58
2021/05/29 05:54:20;;;;;;;4.68;3.25;;;16.80;60.20;;;;;;6151748;23;20018;-58
2021/05/29 05:56:46;;;;;;;4.03;2.38;;;16.50;60.70;;;;;;6125541;23;20017;-59
2021/05/29 05:59:12;;;;;;;5.57;2.50;;;16.20;60.40;;;;;;6150119;23;20057;-58
2021/05/29 06:01:40;;;;;;;5.30;2.83;;;16.10;61.20;;;;;;6151475;23;20045;-58
2021/05/29 06:04:06;;;;;;;5.85;3.40;;;15.90;61.30;;;;;;6151436;23;20034;-58
2021/05/29 06:06:32;;;;;;;5.80;3.33;;;15.80;62.20;;;;;;6152975;23;20336;-57
2021/05/29 06:08:58;;;;;;;3.47;2.67;;;15.70;63.30;;;;;;6152016;23;20089;-58
2021/05/29 06:11:24;;;;;;;4.28;2.25;;;15.70;62.80;;;;;;6152018;23;20041;-58
2021/05/29 06:19:13;;;;;;;4.70;2.40;;;15.50;64.60;;;;;;6150807;23;20084;-58
2021/05/29 06:21:48;;;;;;;6.55;3.28;;;15.60;63.20;;;;;;6149818;23;20511;-58
2021/05/29 06:24:16;;;;;;;4.63;3.10;;;15.50;63.80;;;;;;6149909;23;20075;-59
2021/05/29 06:26:42;;;;;;;2.58;2.00;;;15.60;64.50;;;;;;6150254;23;20447;-58
2021/05/29 06:29:08;;;;;;;5.05;2.80;;;15.60;62.80;;;;;;6149900;23;20014;-58
2021/05/29 06:31:34;;;;;;;7.45;3.78;;;15.50;62.60;;;;;;6151848;23;20041;-58
2021/05/29 06:34:00;;;;;;;11.18;4.80;;;15.60;64.50;;;;;;6150881;23;20010;-59
2021/05/29 06:36:27;;;;;;;16.38;7.30;;;15.80;65.90;;;;;;6152365;23;20028;-58
2021/05/29 06:38:52;;;;;;;11.18;5.03;;;16.20;73.80;;;;;;6150656;23;20335;-58
2021/05/29 06:41:18;;;;;;;6.32;3.20;;;16.50;72.00;;;;;;6150258;23;20100;-58
2021/05/29 06:43:44;;;;;;;6.85;4.32;;;16.70;67.90;;;;;;6150374;23;20019;-58
2021/05/29 06:46:10;;;;;;;9.05;4.35;;;17.00;67.60;;;;;;6150179;23;20842;-58
2021/05/29 06:48:36;;;;;;;8.00;4.72;;;17.30;67.30;;;;;;6151605;23;20157;-58
2021/05/29 06:51:01;;;;;;;8.75;3.63;;;17.60;66.80;;;;;;6121592;23;20037;-57
2021/05/29 06:53:32;;;;;;;4.55;2.53;;;17.70;65.50;;;;;;6145077;23;20045;-58
2021/05/29 06:58:49;;;;;;;11.73;4.55;;;17.60;63.40;;;;;;6129965;23;20096;-58
2021/05/29 07:01:17;;;;;;;8.55;3.53;;;17.50;64.40;;;;;;6127542;23;20026;-59
2021/05/29 07:03:44;;;;;;;4.20;2.63;;;17.50;63.50;;;;;;6126059;23;20014;-59
2021/05/29 07:06:10;;;;;;;5.68;2.80;;;17.50;61.40;;;;;;6152414;23;20018;-59
2021/05/29 07:08:37;;;;;;;11.45;3.15;;;17.30;60.30;;;;;;6151846;23;20443;-59
2021/05/29 07:11:03;;;;;;;35.40;24.65;;;17.30;61.60;;;;;;6151554;23;20041;-59
2021/05/29 07:13:29;;;;;;;6.00;3.10;;;17.40;66.00;;;;;;6154596;23;20025;-59
2021/05/29 07:15:55;;;;;;;6.88;5.00;;;17.50;62.70;;;;;;6149114;23;20025;-69
2021/05/29 07:18:23;;;;;;;18.92;11.05;;;17.40;60.80;;;;;;6150116;23;20017;-70
2021/05/29 07:20:49;;;;;;;29.35;21.13;;;17.20;60.60;;;;;;6150796;23;20092;-69
2021/05/29 07:23:15;;;;;;;37.65;24.30;;;17.10;66.10;;;;;;6151952;23;20443;-67
2021/05/29 07:25:42;;;;;;;14.30;8.75;;;17.00;68.00;;;;;;6152456;23;20014;-69
2021/05/29 07:28:08;;;;;;;9.20;6.22;;;17.10;65.50;;;;;;6152474;23;20336;-69
2021/05/29 07:30:34;;;;;;;6.20;3.55;;;17.10;64.00;;;;;;6152650;23;20041;-69
2021/05/29 07:33:00;;;;;;;4.18;2.13;;;17.00;61.40;;;;;;6153836;23;20525;-69
2021/05/29 07:35:27;;;;;;;14.57;8.75;;;16.80;60.40;;;;;;6151128;23;20129;-69
2021/05/29 07:37:54;;;;;;;7.43;3.03;;;16.60;62.30;;;;;;6152230;23;20040;-68
2021/05/29 07:40:20;;;;;;;6.00;3.33;;;16.50;61.40;;;;;;6152929;23;20032;-68
2021/05/29 07:42:46;;;;;;;16.63;9.05;;;16.40;61.00;;;;;;6152334;23;20443;-65
2021/05/29 07:45:13;;;;;;;12.65;8.77;;;16.40;63.60;;;;;;6151622;23;20014;-67
2021/05/29 07:47:39;;;;;;;15.95;5.60;;;16.80;66.90;;;;;;6126883;23;20463;-66
2021/05/29 07:50:07;;;;;;;15.43;9.65;;;17.10;64.80;;;;;;6151799;23;20018;-66
2021/05/29 07:52:33;;;;;;;11.55;6.97;;;17.40;65.70;;;;;;6150834;23;20432;-67
2021/05/29 07:54:59;;;;;;;5.97;4.28;;;17.80;64.70;;;;;;6152435;23;20025;-67
2021/05/29 07:57:25;;;;;;;6.03;4.60;;;18.10;62.40;;;;;;6153043;23;20014;-67
2021/05/29 07:59:51;;;;;;;8.73;4.60;;;18.20;61.10;;;;;;6150186;23;20026;-67
2021/05/29 08:02:16;;;;;;;7.10;4.43;;;18.30;59.80;;;;;;6152181;23;20021;-67
2021/05/29 08:04:42;;;;;;;7.15;3.10;;;18.30;60.30;;;;;;6151827;23;20013;-67
2021/05/29 08:07:08;;;;;;;5.03;3.38;;;18.50;59.70;;;;;;6127526;23;20482;-67
2021/05/29 08:09:33;;;;;;;6.00;2.70;;;18.60;59.30;;;;;;6152709;23;20013;-67
2021/05/29 08:11:59;;;;;;;5.75;3.30;;;18.70;58.20;;;;;;6126127;23;20017;-67
2021/05/29 08:14:25;;;;;;;7.70;3.08;;;18.70;57.40;;;;;;6125465;23;20014;-67
2021/05/29 08:16:51;;;;;;;6.25;2.80;;;18.60;57.30;;;;;;6151183;23;20025;-67
2021/05/29 08:19:16;;;;;;;4.00;2.50;;;18.60;57.80;;;;;;6151707;23;20095;-67
2021/05/29 08:21:51;;;;;;;5.30;2.58;;;18.60;57.30;;;;;;6150835;23;20025;-67
2021/05/29 08:24:17;;;;;;;3.53;2.20;;;18.60;56.90;;;;;;6151345;23;20096;-67
2021/05/29 08:26:44;;;;;;;4.63;2.85;;;18.50;57.70;;;;;;6151897;23;20013;-69
2021/05/29 08:29:11;;;;;;;4.13;2.55;;;18.60;57.70;;;;;;6124597;23;20447;-69
2021/05/29 08:31:38;;;;;;;5.15;2.78;;;18.50;57.60;;;;;;6125035;23;20463;-67
2021/05/29 08:34:04;;;;;;;4.00;2.20;;;18.60;57.10;;;;;;6150771;23;20033;-67
2021/05/29 08:36:30;;;;;;;3.92;2.33;;;18.60;56.00;;;;;;6150983;23;20013;-67
2021/05/29 08:38:56;;;;;;;4.93;2.70;;;18.50;57.60;;;;;;6151128;23;20021;-67
2021/05/29 08:41:23;;;;;;;4.22;2.72;;;18.60;57.20;;;;;;6150955;23;20321;-67
2021/05/29 08:43:49;;;;;;;7.43;2.92;;;18.80;57.50;;;;;;6151205;23;20014;-64
2021/05/29 08:46:15;;;;;;;4.85;2.55;;;18.90;57.60;;;;;;6151191;23;20387;-64
2021/05/29 08:48:42;;;;;;;4.18;2.38;;;18.90;57.00;;;;;;6150634;23;20531;-64
2021/05/29 08:51:15;;;;;;;6.97;2.30;;;19.10;56.40;;;;;;6150279;23;20652;-64
2021/05/29 08:53:47;;;;;;;3.13;2.33;;;19.10;55.80;;;;;;6150978;23;20029;-64
2021/05/29 08:56:15;;;;;;;5.55;2.28;;;19.30;55.70;;;;;;6124245;23;20041;-64
2021/05/29 08:58:43;;;;;;;4.78;2.72;;;19.40;55.40;;;;;;6150379;23;20026;-64
2021/05/29 09:01:10;;;;;;;4.18;3.10;;;19.60;54.40;;;;;;6150765;23;20100;-64
2021/05/29 09:03:44;;;;;;;3.20;1.95;;;19.70;54.30;;;;;;6150942;23;20013;-64
2021/05/29 09:06:12;;;;;;;3.42;2.50;;;19.80;54.10;;;;;;6151501;23;20049;-65
2021/05/29 09:08:48;;;;;;;3.95;2.70;;;19.80;53.80;;;;;;6152426;23;20024;-65
2021/05/29 09:11:35;;;;;;;3.40;2.60;;;19.80;54.00;;;;;;6150303;23;20045;-65
2021/05/29 09:14:00;;;;;;;3.45;2.53;;;19.70;53.80;;;;;;6148992;23;20076;-67
2021/05/29 09:16:26;;;;;;;5.65;2.30;;;19.70;53.60;;;;;;6099682;23;20277;-68
2021/05/29 09:18:52;;;;;;;4.78;2.67;;;19.70;53.40;;;;;;6150653;23;20021;-70
2021/05/29 09:21:30;;;;;;;4.65;2.70;;;19.60;53.40;;;;;;6124723;23;20026;-69
2021/05/29 09:23:59;;;;;;;3.97;2.40;;;19.50;53.50;;;;;;6150925;23;20028;-69
2021/05/29 09:26:52;;;;;;;4.40;2.33;;;19.30;53.10;;;;;;6150210;23;20037;-69
2021/05/29 09:29:28;;;;;;;2.97;2.08;;;18.80;53.30;;;;;;6150299;23;20014;-69
2021/05/29 09:32:00;;;;;;;4.47;2.08;;;18.40;54.30;;;;;;6150038;23;20335;-69
2021/05/29 09:34:39;;;;;;;4.25;2.03;;;18.00;55.10;;;;;;6151448;23;20013;-69
2021/05/29 09:37:05;;;;;;;2.92;1.90;;;17.80;55.60;;;;;;6124079;23;20335;-69
2021/05/29 09:39:33;;;;;;;3.70;2.17;;;17.60;56.10;;;;;;6150536;23;20028;-69
2021/05/29 09:41:59;;;;;;;4.63;2.53;;;17.40;57.00;;;;;;6151699;23;20067;-66
2021/05/29 09:44:29;;;;;;;5.18;2.50;;;17.30;57.20;;;;;;6150464;23;20121;-65
2021/05/29 09:46:57;;;;;;;4.47;2.78;;;17.20;57.30;;;;;;6125756;23;20018;-66
2021/05/29 09:49:47;;;;;;;3.65;2.35;;;17.10;57.80;;;;;;6126270;23;20013;-65
2021/05/29 09:52:32;;;;;;;4.70;2.80;;;17.10;57.80;;;;;;6132148;23;20018;-65
2021/05/29 09:55:08;;;;;;;4.80;2.20;;;17.10;57.30;;;;;;6150325;23;20089;-66
2021/05/29 09:57:53;;;;;;;8.00;2.92;;;16.90;58.00;;;;;;6149444;23;20040;-66
2021/05/29 10:00:19;;;;;;;7.75;3.13;;;16.90;57.90;;;;;;6120688;23;20028;-66
2021/05/29 10:02:58;;;;;;;4.38;2.40;;;16.80;58.10;;;;;;6094832;23;20349;-66
2021/05/29 10:05:31;;;;;;;5.03;2.30;;;16.80;58.40;;;;;;6120673;23;20025;-66
2021/05/29 10:07:57;;;;;;;7.03;2.55;;;16.70;58.50;;;;;;6119671;23;20022;-66
2021/05/29 10:10:23;;;;;;;7.20;2.50;;;16.50;58.80;;;;;;6095844;23;20018;-66
2021/05/29 10:12:49;;;;;;;4.78;2.25;;;16.40;59.00;;;;;;6121367;23;20049;-66
2021/05/29 10:15:18;;;;;;;3.40;2.20;;;16.30;58.90;;;;;;6122245;23;20062;-66
2021/05/29 10:17:45;;;;;;;7.85;2.92;;;16.20;59.40;;;;;;6120549;23;20014;-66
2021/05/29 10:20:12;;;;;;;3.47;2.03;;;16.10;60.00;;;;;;6119875;23;20408;-66
2021/05/29 10:22:38;;;;;;;4.85;3.28;;;16.10;60.30;;;;;;6120157;23;20021;-66
2021/05/29 10:25:17;;;;;;;5.15;2.80;;;16.10;60.10;;;;;;6124561;23;20490;-66
2021/05/29 10:27:52;;;;;;;6.72;2.78;;;16.20;60.90;;;;;;6123546;23;20014;-66
2021/05/29 10:30:23;;;;;;;4.97;2.58;;;16.20;61.40;;;;;;6124587;23;20013;-66
2021/05/29 10:33:15;;;;;;;5.03;2.83;;;16.30;60.80;;;;;;6123637;23;20014;-66
2021/05/29 10:35:43;;;;;;;2.95;2.65;;;16.40;59.80;;;;;;6125363;23;20025;-66
2021/05/29 10:38:09;;;;;;;4.47;2.47;;;16.30;60.20;;;;;;6121481;23;20064;-66
2021/05/29 10:40:42;;;;;;;5.07;2.60;;;16.20;60.40;;;;;;6121000;23;20018;-66
2021/05/29 10:43:14;;;;;;;3.90;2.70;;;16.10;60.40;;;;;;6124594;23;20014;-66
2021/05/29 10:46:03;;;;;;;4.10;2.25;;;16.00;60.30;;;;;;6121058;23;20017;-66
2021/05/29 10:48:29;;;;;;;7.15;2.58;;;15.90;60.80;;;;;;6124117;23;20017;-66
2021/05/29 10:51:10;;;;;;;4.18;2.17;;;15.70;61.20;;;;;;6122637;23;20057;-65
2021/05/29 10:53:56;;;;;;;5.07;2.58;;;15.70;61.20;;;;;;6120927;23;20073;-66
2021/05/29 10:56:22;;;;;;;5.47;2.78;;;15.60;61.60;;;;;;6121698;23;20124;-67
2021/05/29 10:59:01;;;;;;;6.72;2.80;;;15.50;62.50;;;;;;6133737;23;20048;-67
2021/05/29 11:01:35;;;;;;;7.20;2.58;;;15.30;61.50;;;;;;6154820;23;20093;-67
2021/05/29 11:04:16;;;;;;;8.85;3.03;;;15.30;62.10;;;;;;6127807;23;20017;-66
2021/05/29 11:06:49;;;;;;;4.10;2.30;;;15.30;62.80;;;;;;6151829;23;20112;-66
2021/05/29 11:09:18;;;;;;;4.40;2.40;;;15.40;62.60;;;;;;6128245;23;20088;-66
2021/05/29 11:14:29;;;;;;;5.90;2.45;;;15.60;62.00;;;;;;6152764;23;20017;-66
2021/05/29 11:16:56;;;;;;;6.20;2.65;;;15.70;61.50;;;;;;6150922;23;20013;-66
2021/05/29 11:19:29;;;;;;;5.43;2.55;;;15.70;61.80;;;;;;6152710;23;20014;-65
2021/05/29 11:22:03;;;;;;;4.75;2.45;;;15.90;62.10;;;;;;6151048;23;20124;-66
2021/05/29 11:24:30;;;;;;;3.95;2.60;;;15.90;60.80;;;;;;6153646;23;20049;-66
2021/05/29 11:26:56;;;;;;;3.63;2.28;;;16.10;61.60;;;;;;6153311;23;20017;-66
2021/05/29 11:29:22;;;;;;;4.13;2.53;;;16.30;61.00;;;;;;6127864;23;20102;-66
2021/05/29 11:31:49;;;;;;;4.70;2.63;;;16.50;60.80;;;;;;6100291;23;20010;-66
2021/05/29 11:34:15;;;;;;;6.70;3.38;;;16.60;61.00;;;;;;6126623;23;20025;-66
2021/05/29 11:36:42;;;;;;;3.25;2.20;;;16.70;59.60;;;;;;6125845;23;20013;-66
2021/05/29 11:39:13;;;;;;;4.53;2.80;;;16.70;59.10;;;;;;6152962;23;20080;-65
2021/05/29 11:41:40;;;;;;;4.85;2.38;;;16.80;58.80;;;;;;6151191;23;20021;-65
2021/05/29 11:44:21;;;;;;;4.10;2.63;;;16.80;58.80;;;;;;6125083;23;20440;-66
2021/05/29 11:46:47;;;;;;;3.20;2.33;;;16.70;58.40;;;;;;6153212;23;20013;-66
2021/05/29 11:49:13;;;;;;;5.78;3.28;;;16.80;58.70;;;;;;6153590;23;20013;-66
2021/05/29 11:51:42;;;;;;;4.60;2.80;;;16.80;58.90;;;;;;6125745;23;20017;-67
2021/05/29 11:54:13;;;;;;;3.42;2.20;;;16.80;58.60;;;;;;6152056;23;20372;-67
2021/05/29 11:56:48;;;;;;;4.00;2.60;;;16.80;58.70;;;;;;6151395;23;20289;-67
2021/05/29 11:59:19;;;;;;;2.97;1.90;;;16.70;58.60;;;;;;6153852;23;20021;-67
2021/05/29 12:01:48;;;;;;;2.42;1.70;;;16.80;58.40;;;;;;6151424;23;20025;-67
2021/05/29 12:04:18;;;;;;;3.63;2.22;;;16.80;58.20;;;;;;6102137;23;20021;-67
2021/05/29 12:06:54;;;;;;;2.50;1.95;;;16.70;58.20;;;;;;6151814;23;20473;-67
2021/05/29 12:09:24;;;;;;;4.82;2.35;;;16.60;58.00;;;;;;6126034;23;20103;-66
2021/05/29 12:11:54;;;;;;;4.15;3.03;;;16.40;58.30;;;;;;6151746;23;20025;-66
2021/05/29 12:14:25;;;;;;;3.95;2.83;;;16.40;59.30;;;;;;6151119;23;20096;-67
2021/05/29 12:16:51;;;;;;;6.60;2.90;;;16.50;60.10;;;;;;6152211;23;20103;-66
2021/05/29 12:19:39;;;;;;;5.80;3.42;;;16.50;59.90;;;;;;6151014;23;20444;-66
2021/05/29 12:22:10;;;;;;;4.57;2.63;;;16.80;60.40;;;;;;6152545;23;20092;-67
2021/05/29 12:24:41;;;;;;;4.53;3.08;;;16.90;59.50;;;;;;6151461;23;20462;-67
2021/05/29 12:27:10;;;;;;;7.20;3.28;;;16.90;58.70;;;;;;6153383;23;20124;-66
2021/05/29 12:29:37;;;;;;;3.60;2.55;;;16.90;58.80;;;;;;6151779;23;20096;-66
2021/05/29 12:32:03;;;;;;;4.13;2.55;;;16.90;58.00;;;;;;6150479;23;20420;-67
2021/05/29 12:34:30;;;;;;;4.53;3.58;;;16.90;57.70;;;;;;6152749;23;20017;-66
2021/05/29 12:37:08;;;;;;;15.23;10.90;;;16.80;57.80;;;;;;6149908;23;20024;-66
2021/05/29 12:40:02;;;;;;;25.38;16.17;;;16.70;57.60;;;;;;6149320;23;20067;-66
2021/05/29 12:42:34;;;;;;;40.88;20.70;;;16.50;57.90;;;;;;6147358;23;20032;-66
2021/05/29 12:45:20;;;;;;;150.35;77.40;;;16.50;58.10;;;;;;6152330;23;20543;-66
2021/05/29 12:48:00;;;;;;;531.97;297.80;;;16.50;59.20;;;;;;6150659;23;20379;-66
2021/05/29 12:50:30;;;;;;;523.08;301.25;;;16.60;63.10;;;;;;6150385;23;20017;-67
2021/05/29 12:53:11;;;;;;;338.75;176.48;;;17.00;65.40;;;;;;6149078;23;20025;-67
2021/05/29 12:55:38;;;;;;;45.75;24.90;;;17.50;63.50;;;;;;6151797;23;20017;-67
2021/05/29 12:58:14;;;;;;;99.18;48.80;;;17.60;60.20;;;;;;6150301;23;20844;-68
2021/05/29 13:00:54;;;;;;;66.55;36.33;;;17.80;60.30;;;;;;6150755;23;20094;-68